Time;durP1;ratioP1;P1;durP2;ratioP2;P2;SDS_P1;SDS_P2;PMS_P1;PMS_P2;Temp;Humidity;BMP_temperature;BMP_pressure;BME280_temperature;BME280_humidity;BME280_pressure;Samples;Min_cycle;Max_cycle;Signal;HPM_P1;HPM_P2
2023/10/29 00:02:23;;;;;;;5.05;0.98;;;;;;;11.51;100.00;99036.56;4980171;28;20030;-71
2023/10/29 00:04:48;;;;;;;1.85;0.85;;;;;;;11.64;100.00;99039.13;4982635;28;20508;-71
2023/10/29 00:07:14;;;;;;;2.45;1.00;;;;;;;11.59;100.00;99041.53;4967082;28;20042;-71
2023/10/29 00:09:39;;;;;;;1.90;1.10;;;;;;;11.72;100.00;99043.28;4967529;28;20042;-71
2023/10/29 00:12:05;;;;;;;1.67;0.70;;;;;;;11.76;100.00;99036.66;4985425;28;20124;-72
2023/10/29 00:14:32;;;;;;;3.63;0.80;;;;;;;11.86;100.00;99023.25;4974436;28;20402;-71
2023/10/29 00:16:57;;;;;;;4.50;0.73;;;;;;;11.83;100.00;99047.84;4966036;28;20043;-71
2023/10/29 00:19:22;;;;;;;2.50;1.15;;;;;;;11.82;100.00;99041.03;4983881;28;20092;-71
2023/10/29 00:21:48;;;;;;;3.88;0.70;;;;;;;11.78;100.00;99032.06;4982477;28;20034;-72
2023/10/29 00:24:13;;;;;;;3.83;0.82;;;;;;;11.86;100.00;99036.22;4972486;28;20046;-71
2023/10/29 00:26:39;;;;;;;2.55;0.70;;;;;;;11.97;100.00;99027.03;4984127;28;20034;-70
2023/10/29 00:29:04;;;;;;;2.42;0.90;;;;;;;11.87;100.00;99033.44;4964799;28;20026;-71
2023/10/29 00:31:30;;;;;;;1.27;0.70;;;;;;;11.90;100.00;99027.03;4968707;28;20028;-71
2023/10/29 00:33:56;;;;;;;1.23;0.80;;;;;;;11.92;100.00;99035.41;4983931;28;20400;-71
2023/10/29 00:36:21;;;;;;;1.42;0.63;;;;;;;11.90;100.00;99039.25;4966828;28;20034;-71
2023/10/29 00:38:47;;;;;;;0.68;0.45;;;;;;;11.94;100.00;99035.22;4971720;28;20035;-71
2023/10/29 00:41:12;;;;;;;2.55;0.90;;;;;;;11.94;100.00;99036.03;4966988;28;20050;-70
2023/10/29 00:43:40;;;;;;;5.38;0.85;;;;;;;12.00;100.00;99026.63;4980572;28;20488;-71
2023/10/29 00:46:07;;;;;;;3.97;1.20;;;;;;;11.99;100.00;99020.59;4984920;28;20039;-71
2023/10/29 00:48:33;;;;;;;4.22;0.90;;;;;;;12.03;100.00;99029.56;4986161;28;20029;-71
2023/10/29 00:50:59;;;;;;;3.30;0.98;;;;;;;12.06;100.00;99030.97;4966057;28;20038;-71
2023/10/29 00:53:25;;;;;;;2.17;0.88;;;;;;;11.98;100.00;99031.19;4965143;28;20484;-71
2023/10/29 00:55:51;;;;;;;1.42;1.00;;;;;;;11.89;100.00;99022.84;4968801;28;20027;-71
2023/10/29 00:58:19;;;;;;;4.22;1.40;;;;;;;12.03;100.00;99023.59;4984345;28;20669;-71
2023/10/29 01:00:45;;;;;;;3.85;2.03;;;;;;;12.07;100.00;99014.38;4962709;28;20097;-71
2023/10/29 01:03:10;;;;;;;2.97;0.90;;;;;;;12.11;100.00;99012.97;4969963;28;20034;-71
2023/10/29 01:05:36;;;;;;;2.70;0.80;;;;;;;12.13;100.00;99017.94;4965229;28;20109;-71
2023/10/29 01:08:02;;;;;;;3.17;0.90;;;;;;;12.15;100.00;99005.53;4952372;28;20026;-71
2023/10/29 01:10:27;;;;;;;2.13;0.80;;;;;;;12.22;100.00;98999.31;4968847;28;20035;-71
2023/10/29 01:12:53;;;;;;;2.63;0.85;;;;;;;12.21;100.00;99002.91;4974052;28;20261;-71
2023/10/29 01:15:18;;;;;;;3.63;0.80;;;;;;;12.23;100.00;99010.47;4985328;28;20413;-71
2023/10/29 01:17:44;;;;;;;3.85;1.10;;;;;;;12.26;100.00;99003.06;4971572;28;20093;-70
2023/10/29 01:20:12;;;;;;;3.90;0.80;;;;;;;12.27;100.00;99017.63;4967552;28;20551;-71
2023/10/29 01:22:37;;;;;;;2.05;0.70;;;;;;;12.41;100.00;99000.16;4985101;28;20026;-71
2023/10/29 01:25:07;;;;;;;2.13;0.68;;;;;;;12.55;100.00;98995.66;4983374;28;20046;-71
2023/10/29 01:27:33;;;;;;;5.13;1.00;;;;;;;12.49;100.00;98999.09;4972855;28;20072;-72
2023/10/29 01:29:59;;;;;;;3.50;1.17;;;;;;;12.51;100.00;98996.28;4966703;28;20034;-70
2023/10/29 01:32:24;;;;;;;5.65;0.93;;;;;;;12.45;100.00;99018.72;4965999;28;22160;-70
2023/10/29 01:34:50;;;;;;;1.58;0.70;;;;;;;12.47;100.00;99014.13;4971771;28;20046;-72
2023/10/29 01:37:15;;;;;;;6.22;1.10;;;;;;;12.44;100.00;99004.91;4984853;28;20046;-70
2023/10/29 01:39:41;;;;;;;2.50;0.95;;;;;;;12.48;100.00;99007.13;4986263;28;20038;-70
2023/10/29 01:42:07;;;;;;;6.03;1.10;;;;;;;12.49;100.00;98993.09;4967228;28;20139;-70
2023/10/29 01:44:32;;;;;;;9.32;1.33;;;;;;;12.54;100.00;98965.44;4971307;28;20555;-70
2023/10/29 01:46:58;;;;;;;1.50;0.98;;;;;;;12.55;100.00;98961.06;4984731;28;20031;-69
2023/10/29 01:49:24;;;;;;;3.30;1.13;;;;;;;12.46;100.00;98950.13;4968259;28;20030;-69
2023/10/29 01:51:52;;;;;;;5.07;0.88;;;;;;;12.40;100.00;98940.59;4985036;28;20034;-70
2023/10/29 01:54:17;;;;;;;3.33;1.00;;;;;;;12.36;100.00;98940.22;4969628;28;20034;-70
2023/10/29 01:56:43;;;;;;;3.28;1.05;;;;;;;12.39;100.00;98933.78;4968078;28;20035;-69
2023/10/29 01:59:08;;;;;;;6.22;1.00;;;;;;;12.45;100.00;98927.72;4969430;28;20410;-70
2023/10/29 02:01:34;;;;;;;4.18;1.00;;;;;;;12.44;100.00;98921.75;4968475;28;20038;-69
2023/10/29 02:04:00;;;;;;;3.60;1.10;;;;;;;12.41;100.00;98916.19;4970902;28;20401;-70
2023/10/29 02:06:26;;;;;;;1.58;0.82;;;;;;;12.45;100.00;98914.75;4985018;28;20468;-70
2023/10/29 02:08:52;;;;;;;3.20;0.73;;;;;;;12.45;100.00;98912.94;4967046;28;20066;-70
2023/10/29 02:11:17;;;;;;;4.30;0.80;;;;;;;12.57;100.00;98915.63;4967488;28;20039;-69
2023/10/29 02:13:43;;;;;;;6.00;1.10;;;;;;;12.56;100.00;98918.44;4965998;28;20034;-69
2023/10/29 02:16:09;;;;;;;3.63;0.80;;;;;;;12.45;100.00;98919.94;4969131;28;20042;-70
2023/10/29 02:18:35;;;;;;;3.50;0.85;;;;;;;12.47;100.00;98925.75;4985512;28;20100;-69
2023/10/29 02:21:00;;;;;;;5.63;0.85;;;;;;;12.52;100.00;98912.09;4964592;28;20034;-70
2023/10/29 02:23:27;;;;;;;2.80;0.82;;;;;;;12.43;100.00;98911.56;4968799;28;20050;-70
2023/10/29 02:25:53;;;;;;;8.20;1.30;;;;;;;12.58;100.00;98906.84;4984996;28;20417;-70
2023/10/29 02:28:18;;;;;;;4.63;1.02;;;;;;;12.42;100.00;98904.78;4967048;28;20034;-70
2023/10/29 02:30:44;;;;;;;3.42;1.00;;;;;;;12.55;100.00;98909.06;4969156;28;20038;-69
2023/10/29 02:33:09;;;;;;;3.03;0.90;;;;;;;12.58;100.00;98901.63;4969322;28;20034;-70
2023/10/29 02:35:34;;;;;;;3.42;1.08;;;;;;;12.69;100.00;98901.94;4968582;28;20634;-70
2023/10/29 02:38:00;;;;;;;2.63;0.82;;;;;;;12.65;100.00;98893.75;4982196;28;20045;-71
2023/10/29 02:40:25;;;;;;;4.18;0.90;;;;;;;12.64;100.00;98903.38;4984242;28;20049;-69
2023/10/29 02:42:51;;;;;;;7.40;0.85;;;;;;;12.74;100.00;98908.06;4963853;28;20405;-69
2023/10/29 02:45:16;;;;;;;3.13;0.65;;;;;;;12.78;100.00;98909.22;4968372;28;20042;-70
2023/10/29 02:47:42;;;;;;;4.97;0.63;;;;;;;12.77;100.00;98912.84;4968618;28;20030;-70
2023/10/29 02:50:08;;;;;;;1.95;0.60;;;;;;;12.78;100.00;98909.22;4969688;28;20532;-69
2023/10/29 02:52:33;;;;;;;4.45;0.65;;;;;;;12.83;100.00;98906.78;4970523;28;20038;-69
2023/10/29 02:54:59;;;;;;;0.90;0.55;;;;;;;12.73;100.00;98897.88;4971498;28;20679;-70
2023/10/29 02:57:24;;;;;;;1.80;0.52;;;;;;;12.77;100.00;98893.84;4971126;28;20034;-70
2023/10/29 02:59:50;;;;;;;2.25;0.60;;;;;;;12.75;100.00;98881.06;4982641;28;20026;-70
2023/10/29 03:02:16;;;;;;;1.63;0.65;;;;;;;12.84;100.00;98884.94;4984534;28;20038;-70
2023/10/29 03:04:41;;;;;;;3.40;0.80;;;;;;;12.84;100.00;98881.56;4960761;28;20026;-70
2023/10/29 03:07:07;;;;;;;1.20;0.47;;;;;;;12.84;100.00;98889.38;4981859;28;20408;-69
2023/10/29 03:09:32;;;;;;;1.92;0.52;;;;;;;12.78;100.00;98872.81;4984521;28;20042;-70
2023/10/29 03:11:58;;;;;;;2.63;0.90;;;;;;;12.77;100.00;98876.44;4983833;28;20041;-70
2023/10/29 03:14:23;;;;;;;2.05;0.63;;;;;;;12.71;100.00;98869.50;4983179;28;20429;-70
2023/10/29 03:16:49;;;;;;;1.85;0.55;;;;;;;12.68;100.00;98874.31;4963930;28;20038;-70
2023/10/29 03:19:14;;;;;;;1.85;0.70;;;;;;;12.81;100.00;98874.22;4953530;28;20447;-70
2023/10/29 03:21:40;;;;;;;1.75;0.60;;;;;;;12.76;100.00;98881.84;4966374;28;20034;-70
2023/10/29 03:24:05;;;;;;;1.85;0.70;;;;;;;12.78;100.00;98882.44;4981954;28;20042;-69
2023/10/29 03:26:31;;;;;;;2.20;0.55;;;;;;;12.72;100.00;98872.91;4980551;28;20039;-70
2023/10/29 03:28:56;;;;;;;1.17;0.47;;;;;;;12.84;100.00;98869.34;4968358;28;20038;-70
2023/10/29 03:31:23;;;;;;;2.63;0.60;;;;;;;12.90;100.00;98866.88;4952489;28;20042;-70
2023/10/29 03:33:49;;;;;;;1.75;0.57;;;;;;;12.81;100.00;98866.41;4966957;28;20042;-69
2023/10/29 03:36:14;;;;;;;1.27;0.50;;;;;;;12.93;100.00;98875.06;4954909;28;20104;-70
2023/10/29 03:38:40;;;;;;;2.35;0.70;;;;;;;12.99;100.00;98887.19;4984938;28;20385;-69
2023/10/29 03:41:06;;;;;;;3.88;0.50;;;;;;;12.89;100.00;98879.09;4953992;28;20093;-70
2023/10/29 03:43:32;;;;;;;4.60;1.65;;;;;;;12.95;100.00;98883.44;4990698;28;20030;-70
2023/10/29 03:45:59;;;;;;;3.88;0.77;;;;;;;12.93;100.00;98890.66;4967547;28;20133;-70
2023/10/29 03:48:25;;;;;;;2.33;0.60;;;;;;;12.88;100.00;98894.94;4988536;28;20030;-69
2023/10/29 03:50:51;;;;;;;2.97;0.55;;;;;;;12.91;100.00;98891.91;4981897;28;20535;-69
2023/10/29 03:53:16;;;;;;;0.88;0.47;;;;;;;13.01;100.00;98895.56;4981025;28;20030;-69
2023/10/29 03:55:42;;;;;;;3.80;1.20;;;;;;;12.94;100.00;98876.66;4985164;28;20034;-70
2023/10/29 03:58:07;;;;;;;2.38;0.50;;;;;;;12.91;100.00;98884.88;4984199;28;20053;-70
2023/10/29 04:00:32;;;;;;;0.75;0.68;;;;;;;12.83;100.00;98885.97;4966699;28;20045;-69
2023/10/29 04:02:59;;;;;;;1.92;0.60;;;;;;;12.92;100.00;98889.09;4978795;28;20031;-69
2023/10/29 04:05:25;;;;;;;0.68;0.40;;;;;;;12.87;100.00;98894.13;4981224;28;20077;-69
2023/10/29 04:07:52;;;;;;;1.40;0.50;;;;;;;12.94;100.00;98879.25;4962421;28;20031;-70
2023/10/29 04:10:17;;;;;;;1.08;0.60;;;;;;;12.94;100.00;98879.25;4982873;28;20049;-70
2023/10/29 04:12:44;;;;;;;2.22;0.50;;;;;;;12.83;100.00;98885.97;4969602;28;20037;-69
2023/10/29 04:15:09;;;;;;;1.75;0.40;;;;;;;12.92;100.00;98909.91;4974253;28;20049;-70
2023/10/29 04:17:34;;;;;;;1.15;0.47;;;;;;;12.95;100.00;98904.25;4978369;28;20068;-70
2023/10/29 04:20:00;;;;;;;2.13;0.60;;;;;;;12.95;100.00;98917.25;4967070;28;20033;-70
2023/10/29 04:22:26;;;;;;;4.22;0.40;;;;;;;13.10;100.00;98903.88;4983318;28;20503;-70
2023/10/29 04:24:51;;;;;;;10.63;1.08;;;;;;;13.03;100.00;98921.38;4983461;28;20041;-69
2023/10/29 04:27:17;;;;;;;2.90;0.60;;;;;;;13.05;100.00;98911.53;4982241;28;20505;-69
2023/10/29 04:29:42;;;;;;;1.85;0.95;;;;;;;13.01;100.00;98913.78;4954966;28;20042;-69
2023/10/29 04:32:08;;;;;;;2.63;1.30;;;;;;;13.02;100.00;98919.78;4963192;28;20049;-70
2023/10/29 04:34:34;;;;;;;2.17;0.52;;;;;;;13.20;100.00;98921.56;4987901;28;20488;-69
2023/10/29 04:36:59;;;;;;;5.68;1.48;;;;;;;13.12;100.00;98903.66;4964749;28;20035;-70
2023/10/29 04:39:25;;;;;;;3.55;0.30;;;;;;;13.24;100.00;98904.50;4958325;28;20029;-69
2023/10/29 04:41:51;;;;;;;0.90;0.40;;;;;;;13.31;100.00;98894.06;4985605;28;20030;-69
2023/10/29 04:44:16;;;;;;;1.38;0.50;;;;;;;13.33;100.00;98890.19;4986613;28;20381;-69
2023/10/29 04:46:42;;;;;;;2.35;0.52;;;;;;;13.26;100.00;98884.28;4972295;28;20073;-70
2023/10/29 04:49:07;;;;;;;1.80;0.50;;;;;;;13.18;100.00;98889.78;4976154;28;20022;-70
2023/10/29 04:51:33;;;;;;;6.10;0.70;;;;;;;13.27;100.00;98900.69;4973074;28;20693;-70
2023/10/29 04:54:00;;;;;;;2.58;0.43;;;;;;;13.28;100.00;98904.88;4988870;28;20092;-69
2023/10/29 04:56:26;;;;;;;1.58;0.55;;;;;;;13.20;100.00;98906.78;4956655;28;20592;-69
2023/10/29 04:58:52;;;;;;;3.70;0.70;;;;;;;13.19;100.00;98902.56;4986331;28;20129;-70
2023/10/29 05:01:18;;;;;;;6.50;0.43;;;;;;;13.46;100.00;98901.47;4988673;28;20646;-69
2023/10/29 05:03:44;;;;;;;3.00;0.80;;;;;;;13.25;100.00;98898.31;4971122;28;20037;-68
2023/10/29 05:06:20;;;;;;;4.30;0.70;;;;;;;13.22;100.00;98912.56;4989013;28;20053;-69
2023/10/29 05:08:45;;;;;;;2.17;0.80;;;;;;;13.28;100.00;98902.25;4986710;28;20038;-69
2023/10/29 05:11:11;;;;;;;2.75;0.60;;;;;;;13.29;100.00;98909.06;4970948;28;20061;-70
2023/10/29 05:13:36;;;;;;;5.25;1.48;;;;;;;13.29;100.00;98919.47;4984562;28;20488;-70
2023/10/29 05:16:04;;;;;;;1.13;0.52;;;;;;;13.30;100.00;98928.84;4988901;28;20057;-69
2023/10/29 05:18:30;;;;;;;5.22;0.60;;;;;;;13.29;100.00;98946.28;4971580;28;20693;-69
2023/10/29 05:20:55;;;;;;;3.22;0.80;;;;;;;13.22;100.00;98937.75;4970917;28;20026;-70
2023/10/29 05:23:20;;;;;;;2.35;0.60;;;;;;;13.23;100.00;98950.56;4983700;28;20042;-69
2023/10/29 05:25:46;;;;;;;1.42;0.57;;;;;;;13.23;100.00;98953.16;4988187;28;20047;-69
2023/10/29 05:28:11;;;;;;;1.83;1.00;;;;;;;13.23;100.00;98941.97;4983176;28;20026;-69
2023/10/29 05:30:38;;;;;;;3.25;0.70;;;;;;;13.29;100.00;98925.47;4989279;28;20109;-69
2023/10/29 05:33:04;;;;;;;6.05;1.45;;;;;;;13.25;100.00;98921.72;4986030;28;20485;-69
2023/10/29 05:35:30;;;;;;;5.30;0.60;;;;;;;13.28;100.00;98923.91;4984067;28;20077;-70
2023/10/29 05:37:55;;;;;;;2.85;0.90;;;;;;;13.20;100.00;98918.97;4969685;28;20517;-69
2023/10/29 05:40:20;;;;;;;6.05;0.82;;;;;;;13.22;100.00;98930.78;4968890;28;20042;-69
2023/10/29 05:42:46;;;;;;;1.52;0.50;;;;;;;13.17;100.00;98927.22;4986874;28;20038;-69
2023/10/29 05:45:11;;;;;;;4.55;0.75;;;;;;;13.16;100.00;98929.03;4967682;28;20038;-71
2023/10/29 05:47:37;;;;;;;6.80;0.60;;;;;;;13.10;100.00;98929.13;4971656;28;20031;-70
2023/10/29 05:50:06;;;;;;;2.60;0.70;;;;;;;13.09;100.00;98941.34;4972445;28;20030;-70
2023/10/29 05:52:31;;;;;;;8.70;0.88;;;;;;;13.23;100.00;98929.75;4987963;28;20045;-69
2023/10/29 05:54:57;;;;;;;3.72;0.70;;;;;;;13.17;100.00;98948.06;4986256;28;20031;-69
2023/10/29 05:57:22;;;;;;;8.10;0.50;;;;;;;13.18;100.00;98949.63;4983044;28;20541;-70
2023/10/29 05:59:48;;;;;;;5.35;0.63;;;;;;;13.10;100.00;98955.13;4988899;28;20034;-70
2023/10/29 06:02:14;;;;;;;5.55;0.95;;;;;;;13.28;100.00;98960.34;4986067;28;20092;-69
2023/10/29 06:04:40;;;;;;;3.22;0.70;;;;;;;13.15;100.00;98960.50;4987909;28;20038;-69
2023/10/29 06:07:05;;;;;;;3.22;0.80;;;;;;;13.10;100.00;98955.91;4987017;28;20178;-70
2023/10/29 06:09:31;;;;;;;3.00;0.70;;;;;;;13.09;100.00;98961.34;4970806;28;20033;-70
2023/10/29 06:11:56;;;;;;;4.43;0.80;;;;;;;13.13;100.00;98962.47;4984267;28;20050;-69
2023/10/29 06:14:22;;;;;;;5.18;1.38;;;;;;;13.12;100.00;98969.50;4984040;28;20038;-68
2023/10/29 06:16:48;;;;;;;6.07;0.75;;;;;;;13.14;100.00;98977.88;4968273;28;20084;-69
2023/10/29 06:19:13;;;;;;;3.47;0.80;;;;;;;13.15;100.00;98983.91;4986522;28;20034;-69
2023/10/29 06:21:39;;;;;;;7.53;1.17;;;;;;;13.05;100.00;98977.41;4983784;28;20046;-69
2023/10/29 06:24:06;;;;;;;7.70;2.20;;;;;;;12.99;100.00;98998.25;4984876;28;20501;-69
2023/10/29 06:26:31;;;;;;;6.95;1.95;;;;;;;12.93;100.00;98992.13;4980080;28;20042;-69
2023/10/29 06:28:57;;;;;;;32.28;11.75;;;;;;;13.01;100.00;99001.44;4968564;28;20046;-69
2023/10/29 06:31:33;;;;;;;11.02;3.97;;;;;;;12.99;100.00;99009.47;4954117;28;20038;-69
2023/10/29 06:33:58;;;;;;;10.40;3.72;;;;;;;12.92;100.00;99018.34;4985399;28;20159;-70
2023/10/29 06:36:24;;;;;;;17.42;7.68;;;;;;;12.89;100.00;99021.38;4985532;28;20078;-70
2023/10/29 06:38:49;;;;;;;33.03;12.48;;;;;;;12.99;100.00;99019.88;4990929;28;20042;-69
2023/10/29 06:41:15;;;;;;;35.33;13.48;;;;;;;13.02;99.96;99027.25;4986375;28;20085;-69
2023/10/29 06:43:40;;;;;;;20.05;8.57;;;;;;;13.12;99.66;99033.78;4970033;28;20045;-69
2023/10/29 06:46:06;;;;;;;14.48;5.00;;;;;;;13.02;99.44;99036.88;4972902;28;20042;-69
2023/10/29 06:48:31;;;;;;;15.65;6.75;;;;;;;12.95;100.00;99029.13;4985511;28;20030;-69
2023/10/29 06:50:57;;;;;;;14.80;6.18;;;;;;;12.95;100.00;99042.13;4970118;28;20409;-69
2023/10/29 06:53:22;;;;;;;7.90;2.10;;;;;;;13.00;100.00;99044.88;4972149;28;20030;-69
2023/10/29 06:55:47;;;;;;;7.70;3.75;;;;;;;12.99;100.00;99047.69;4983001;28;20042;-69
2023/10/29 06:58:13;;;;;;;33.38;14.57;;;;;;;12.95;100.00;99044.72;4987676;28;20038;-69
2023/10/29 07:00:39;;;;;;;8.73;2.55;;;;;;;12.94;100.00;99052.72;4954955;28;20463;-69
2023/10/29 07:03:05;;;;;;;8.88;2.25;;;;;;;12.92;100.00;99055.56;4985427;28;20031;-69
2023/10/29 07:05:31;;;;;;;13.93;7.05;;;;;;;12.77;100.00;99061.09;4985550;28;20049;-70
2023/10/29 07:07:57;;;;;;;11.32;3.47;;;;;;;12.70;100.00;99070.75;4984127;28;20034;-69
2023/10/29 07:10:23;;;;;;;8.40;3.60;;;;;;;12.70;100.00;99070.75;4983955;28;20672;-69
2023/10/29 07:12:48;;;;;;;9.38;1.70;;;;;;;12.73;100.00;99066.91;4970181;28;20049;-70
2023/10/29 07:15:14;;;;;;;18.80;12.23;;;;;;;12.72;100.00;99070.53;4966299;28;20031;-69
2023/10/29 07:17:40;;;;;;;13.85;3.45;;;;;;;12.81;100.00;99069.28;4985504;28;20363;-70
2023/10/29 07:20:06;;;;;;;12.88;5.50;;;;;;;12.68;100.00;99077.16;4970359;28;20042;-69
2023/10/29 07:22:31;;;;;;;7.45;4.55;;;;;;;12.54;100.00;99076.44;4987822;28;20092;-70
2023/10/29 07:24:57;;;;;;;9.90;4.88;;;;;;;12.69;100.00;99089.94;4951580;28;20531;-70
2023/10/29 07:27:23;;;;;;;13.00;5.78;;;;;;;12.60;100.00;99083.41;4967048;28;20053;-69
2023/10/29 07:29:48;;;;;;;4.65;1.88;;;;;;;12.65;100.00;99081.75;4984241;28;20041;-69
2023/10/29 07:32:14;;;;;;;6.18;2.38;;;;;;;12.67;100.00;99084.16;4982889;28;20049;-70
2023/10/29 07:34:39;;;;;;;3.22;1.35;;;;;;;12.60;100.00;99079.03;4982026;28;20088;-70
2023/10/29 07:37:05;;;;;;;5.82;1.20;;;;;;;12.58;100.00;99078.44;4962642;28;20125;-69
2023/10/29 07:39:30;;;;;;;10.35;1.30;;;;;;;12.66;100.00;99070.38;4970746;28;20042;-69
2023/10/29 07:41:56;;;;;;;6.63;1.30;;;;;;;12.59;100.00;99076.63;4969140;28;20511;-70
2023/10/29 07:44:24;;;;;;;8.93;1.05;;;;;;;12.68;100.00;99080.56;4971827;28;20139;-70
2023/10/29 07:46:49;;;;;;;6.43;1.52;;;;;;;12.61;100.00;99093.59;4982714;28;20046;-69
2023/10/29 07:49:15;;;;;;;9.57;3.47;;;;;;;12.57;100.00;99071.63;4985857;28;20413;-69
2023/10/29 07:51:40;;;;;;;4.60;1.15;;;;;;;12.74;100.00;99094.53;4986847;28;20026;-70
2023/10/29 07:54:06;;;;;;;7.25;2.10;;;;;;;12.73;100.00;99116.31;4967820;28;20421;-69
2023/10/29 07:56:32;;;;;;;10.95;2.90;;;;;;;12.78;100.00;99132.09;4965890;28;20464;-69
2023/10/29 07:58:57;;;;;;;11.50;4.22;;;;;;;12.88;100.00;99144.63;4970252;28;20026;-69
2023/10/29 08:01:23;;;;;;;3.50;1.13;;;;;;;12.89;100.00;99151.44;4980277;28;20026;-70
2023/10/29 08:03:50;;;;;;;6.57;1.00;;;;;;;12.92;99.56;99166.63;4983606;28;20511;-70
2023/10/29 08:06:15;;;;;;;4.57;1.80;;;;;;;12.83;100.00;99177.28;4978580;28;20030;-69
2023/10/29 08:08:41;;;;;;;7.50;1.50;;;;;;;12.74;100.00;99181.13;4980290;28;20797;-69
2023/10/29 08:11:16;;;;;;;8.38;2.13;;;;;;;12.84;100.00;99178.06;4980950;28;20038;-70
2023/10/29 08:13:43;;;;;;;7.40;2.50;;;;;;;12.94;99.26;99164.59;4966661;28;20038;-70
2023/10/29 08:16:08;;;;;;;7.95;1.65;;;;;;;12.95;99.12;99138.38;4980503;28;20121;-70
2023/10/29 08:18:34;;;;;;;5.10;1.10;;;;;;;12.93;98.89;99134.41;4981446;28;20553;-69
2023/10/29 08:21:00;;;;;;;7.47;2.00;;;;;;;13.05;98.79;99141.31;4962582;28;20038;-69
2023/10/29 08:23:26;;;;;;;4.57;2.10;;;;;;;13.09;99.52;99131.28;4978097;28;20038;-69
2023/10/29 08:25:52;;;;;;;8.13;2.63;;;;;;;12.99;99.03;99136.16;4979210;28;20034;-70
2023/10/29 08:28:19;;;;;;;6.10;1.88;;;;;;;12.94;99.73;99142.00;4982925;28;20022;-69
2023/10/29 08:30:47;;;;;;;8.00;1.38;;;;;;;12.98;97.67;99152.78;4962377;28;20066;-69
2023/10/29 08:33:13;;;;;;;11.48;1.30;;;;;;;12.89;98.51;99157.44;4970222;28;20087;-70
2023/10/29 08:35:46;;;;;;;5.32;1.35;;;;;;;12.78;98.92;99166.69;4948806;28;20484;-69
2023/10/29 08:38:11;;;;;;;5.88;1.35;;;;;;;12.97;97.86;99158.97;4981744;28;20410;-69
2023/10/29 08:40:37;;;;;;;10.00;2.03;;;;;;;12.84;98.91;99157.25;4981651;28;20497;-70
2023/10/29 08:43:06;;;;;;;10.65;1.95;;;;;;;12.81;98.56;99168.91;4982946;28;20382;-69
2023/10/29 08:45:32;;;;;;;7.95;1.75;;;;;;;12.90;98.20;99177.22;4980255;28;20037;-69
2023/10/29 08:47:57;;;;;;;7.25;3.08;;;;;;;13.01;97.72;99173.16;4968644;28;20480;-69
2023/10/29 08:50:23;;;;;;;11.00;1.40;;;;;;;12.97;97.69;99167.56;4960113;28;20045;-69
2023/10/29 08:52:48;;;;;;;8.43;1.42;;;;;;;12.99;96.69;99186.38;4982564;28;20089;-70
2023/10/29 08:55:14;;;;;;;8.13;1.48;;;;;;;12.90;96.84;99200.63;4969764;28;20042;-69
2023/10/29 08:57:39;;;;;;;6.15;1.27;;;;;;;13.04;95.65;99193.56;4965388;28;20400;-69
2023/10/29 09:00:05;;;;;;;13.25;5.78;;;;;;;12.99;95.62;99191.56;4979932;28;20045;-70
2023/10/29 09:02:31;;;;;;;9.60;3.17;;;;;;;12.90;96.49;99184.25;4979483;28;20053;-70
2023/10/29 09:04:57;;;;;;;6.07;1.58;;;;;;;12.98;96.17;99186.59;4980894;28;20400;-69
2023/10/29 09:07:25;;;;;;;12.48;3.38;;;;;;;13.01;96.40;99196.56;4983155;28;20026;-70
2023/10/29 09:09:52;;;;;;;5.93;1.70;;;;;;;13.06;96.86;99196.75;4964583;28;20069;-71
2023/10/29 09:12:18;;;;;;;9.55;1.92;;;;;;;13.12;95.45;99188.09;4965948;28;20042;-69
2023/10/29 09:14:43;;;;;;;7.68;2.78;;;;;;;13.12;95.33;99198.50;4967937;28;20039;-69
2023/10/29 09:17:10;;;;;;;5.65;1.10;;;;;;;13.23;95.62;99216.03;4975420;28;20053;-69
2023/10/29 09:19:35;;;;;;;9.30;1.25;;;;;;;13.32;95.34;99237.44;4983497;28;20093;-69
2023/10/29 09:22:01;;;;;;;8.98;2.13;;;;;;;13.27;95.25;99233.84;4980654;28;20034;-69
2023/10/29 09:24:26;;;;;;;5.70;1.52;;;;;;;13.34;95.21;99245.03;4966908;28;20038;-69
2023/10/29 09:26:53;;;;;;;4.68;1.20;;;;;;;13.37;93.34;99245.41;4982169;28;20045;-69
2023/10/29 09:29:19;;;;;;;4.20;1.27;;;;;;;13.33;93.60;99246.81;4966337;28;20670;-69
2023/10/29 09:31:45;;;;;;;4.75;1.13;;;;;;;13.29;93.76;99237.03;4969963;28;20034;-69
2023/10/29 09:34:11;;;;;;;3.40;1.10;;;;;;;13.26;93.62;99227.84;4968982;28;20070;-69
2023/10/29 09:36:37;;;;;;;6.10;1.70;;;;;;;13.42;94.03;99227.31;4961193;28;20042;-70
2023/10/29 09:39:03;;;;;;;6.57;3.20;;;;;;;13.43;95.25;99228.94;4969910;28;20030;-69
2023/10/29 09:41:31;;;;;;;6.40;0.52;;;;;;;13.41;94.07;99235.34;4986071;28;20042;-70
2023/10/29 09:43:58;;;;;;;4.10;0.80;;;;;;;13.57;93.58;99236.63;4982693;28;20114;-70
2023/10/29 09:46:24;;;;;;;4.45;0.68;;;;;;;13.46;93.25;99232.91;4968765;28;20181;-69
2023/10/29 09:48:51;;;;;;;2.55;0.65;;;;;;;13.52;93.85;99216.44;4969723;28;20667;-70
2023/10/29 09:51:19;;;;;;;4.32;0.57;;;;;;;13.62;93.47;99206.34;4988196;28;20394;-70
2023/10/29 09:53:45;;;;;;;4.97;1.08;;;;;;;13.81;93.16;99207.16;4970455;28;20287;-69
2023/10/29 09:56:12;;;;;;;4.47;1.42;;;;;;;14.00;93.22;99221.00;4983677;28;20408;-70
2023/10/29 09:58:38;;;;;;;4.85;1.23;;;;;;;14.06;91.15;99215.94;4985822;28;20084;-69
2023/10/29 10:01:05;;;;;;;3.20;0.80;;;;;;;14.27;89.76;99222.53;4983525;28;20038;-69
2023/10/29 10:03:31;;;;;;;5.07;1.08;;;;;;;14.33;88.02;99230.25;4982810;28;20034;-70
2023/10/29 10:05:58;;;;;;;4.45;0.82;;;;;;;14.37;88.38;99228.00;4985009;28;20053;-70
2023/10/29 10:08:30;;;;;;;5.18;1.10;;;;;;;14.46;88.38;99225.91;4985682;28;20062;-69
2023/10/29 10:10:57;;;;;;;6.70;1.10;;;;;;;14.50;86.86;99232.28;4983754;28;20042;-69
2023/10/29 10:13:39;;;;;;;3.78;0.90;;;;;;;14.42;86.32;99209.91;4968130;28;20428;-69
2023/10/29 10:16:10;;;;;;;5.43;1.13;;;;;;;14.36;87.35;99213.41;4981932;28;20061;-69
2023/10/29 10:18:58;;;;;;;7.10;0.85;;;;;;;14.43;88.33;99219.34;4968718;28;20076;-69
2023/10/29 10:21:39;;;;;;;8.32;2.17;;;;;;;14.45;86.55;99214.69;4967507;28;20070;-70
2023/10/29 10:24:05;;;;;;;3.28;0.95;;;;;;;14.32;86.12;99223.47;4985060;28;20040;-69
2023/10/29 10:26:34;;;;;;;4.97;0.85;;;;;;;14.36;86.22;99218.59;4970141;28;20428;-70
2023/10/29 10:29:02;;;;;;;4.85;1.00;;;;;;;14.36;83.95;99208.19;4954301;28;20057;-69
2023/10/29 10:31:27;;;;;;;8.30;2.78;;;;;;;14.35;86.03;99211.78;4971685;28;20047;-70
2023/10/29 10:34:13;;;;;;;12.63;3.67;;;;;;;14.23;84.77;99188.28;4986668;28;20029;-70
2023/10/29 10:36:42;;;;;;;7.47;2.20;;;;;;;14.23;85.58;99177.84;4969280;28;20436;-69
2023/10/29 10:39:08;;;;;;;8.65;3.58;;;;;;;14.28;87.21;99209.28;4985948;28;20516;-69
2023/10/29 10:41:42;;;;;;;5.20;1.10;;;;;;;14.31;84.11;99210.63;4982170;28;22274;-69
2023/10/29 10:44:10;;;;;;;6.07;1.27;;;;;;;14.38;85.40;99213.97;4983359;28;20030;-68
2023/10/29 10:46:37;;;;;;;5.72;1.67;;;;;;;14.46;85.65;99213.66;4985412;28;20038;-70
2023/10/29 10:49:06;;;;;;;6.32;2.33;;;;;;;14.37;85.12;99215.78;4985784;28;20033;-69
2023/10/29 10:51:34;;;;;;;4.63;0.90;;;;;;;14.42;83.41;99228.16;4984668;28;20105;-69
2023/10/29 10:54:02;;;;;;;6.32;3.65;;;;;;;14.46;84.38;99229.31;4984760;28;20050;-69
2023/10/29 10:56:37;;;;;;;6.45;1.30;;;;;;;14.37;83.63;99239.25;4963618;28;20401;-69
2023/10/29 10:59:07;;;;;;;7.43;1.30;;;;;;;14.23;86.50;99239.63;4951294;28;20433;-69
2023/10/29 11:01:37;;;;;;;6.38;0.88;;;;;;;14.45;83.71;99235.56;4981880;28;20039;-70
2023/10/29 11:04:04;;;;;;;5.60;1.88;;;;;;;14.57;84.54;99230.41;4983556;28;20038;-69
2023/10/29 11:06:31;;;;;;;4.28;1.60;;;;;;;14.70;83.46;99224.25;4949228;28;20161;-69
2023/10/29 11:08:57;;;;;;;4.68;1.40;;;;;;;14.80;82.91;99227.09;4967067;28;20109;-69
2023/10/29 11:11:40;;;;;;;9.10;1.52;;;;;;;14.95;82.24;99226.69;4981284;28;20629;-70
2023/10/29 11:14:12;;;;;;;2.17;0.57;;;;;;;14.94;80.97;99227.72;4981379;28;20061;-70
2023/10/29 11:16:51;;;;;;;4.43;1.38;;;;;;;15.10;80.78;99226.28;4966449;28;20034;-69
2023/10/29 11:19:35;;;;;;;8.98;1.15;;;;;;;15.12;80.96;99219.03;4982684;28;20497;-68
2023/10/29 11:22:16;;;;;;;4.60;1.20;;;;;;;15.08;80.80;99223.09;4947307;28;20134;-69
2023/10/29 11:24:42;;;;;;;9.70;2.30;;;;;;;15.24;82.07;99239.94;4983427;28;20088;-70